createdAt,value
2019-03-21T00:05:18.308Z,23.67
2019-03-21T00:15:25.275Z,21.15
2019-03-21T00:25:28.217Z,24.50
2019-03-21T00:35:30.776Z,15.28
2019-03-21T00:45:33.290Z,20.50
2019-03-21T00:55:36.390Z,20.20
2019-03-21T01:15:40.966Z,20.60
2019-03-21T01:25:46.246Z,21.97
2019-03-21T01:35:48.777Z,18.40
2019-03-21T01:45:51.312Z,15.17
2019-03-21T01:55:54.082Z,21.60
2019-03-21T02:05:57.706Z,19.07
2019-03-21T02:16:00.559Z,16.87
2019-03-21T02:26:03.795Z,13.83
2019-03-21T02:36:06.384Z,24.63
2019-03-21T02:46:09.272Z,20.00
2019-03-21T02:56:14.281Z,19.50
2019-03-21T03:06:16.907Z,20.30
2019-03-21T03:16:19.678Z,18.77
2019-03-21T03:26:22.713Z,19.07
2019-03-21T03:36:25.393Z,18.27
2019-03-21T03:46:29.566Z,18.67
2019-03-21T03:56:32.428Z,18.80
2019-03-21T04:06:35.473Z,16.67
2019-03-21T04:16:38.478Z,20.77
2019-03-21T04:26:41.318Z,18.10
2019-03-21T04:36:43.911Z,20.05
2019-03-21T04:46:46.501Z,17.77
2019-03-21T04:56:49.464Z,19.17
2019-03-21T05:06:52.514Z,24.27
2019-03-21T05:16:55.557Z,20.70
2019-03-21T05:26:58.295Z,28.75
2019-03-21T05:37:00.851Z,26.10
2019-03-21T05:47:03.354Z,32.80
2019-03-21T05:57:06.559Z,23.10
2019-03-21T06:17:31.424Z,26.07
2019-03-21T06:27:35.097Z,21.93
2019-03-21T06:37:38.566Z,27.75
2019-03-21T06:47:41.087Z,20.02
2019-03-21T06:57:43.982Z,18.87
2019-03-21T07:07:47.114Z,21.50
2019-03-21T07:27:52.318Z,21.85
2019-03-21T07:37:54.866Z,17.30
2019-03-21T07:47:58.013Z,24.47
2019-03-21T08:08:02.903Z,20.45
2019-03-21T08:18:05.418Z,37.25
2019-03-21T08:28:08.118Z,26.90
2019-03-21T08:38:11.399Z,20.17
2019-03-21T08:48:14.678Z,30.80
2019-03-21T08:58:18.048Z,27.35
2019-03-21T09:08:20.932Z,28.07
2019-03-21T09:18:23.502Z,26.45
2019-03-21T09:28:27.438Z,28.07
2019-03-21T09:38:31.412Z,24.20
2019-03-21T09:48:34.270Z,24.98
2019-03-21T09:58:37.059Z,31.45
2019-03-21T10:08:39.726Z,26.12
2019-03-21T10:18:42.511Z,23.10
2019-03-21T10:28:45.042Z,22.70
2019-03-21T10:38:48.758Z,26.67
2019-03-21T10:49:10.447Z,26.12
2019-03-21T10:59:13.316Z,24.67
2019-03-21T11:09:16.923Z,21.93
2019-03-21T11:19:19.371Z,51.18
2019-03-21T11:29:22.387Z,28.07
2019-03-21T11:49:27.763Z,19.57
2019-03-21T11:59:46.218Z,19.05
2019-03-21T12:09:35.215Z,22.22
2019-03-21T12:19:40.927Z,18.27
2019-03-21T12:29:43.688Z,18.57
2019-03-21T12:49:47.890Z,16.27
2019-03-21T12:59:50.790Z,11.95
2019-03-21T13:09:53.850Z,12.45
2019-03-21T13:19:56.340Z,11.28
2019-03-21T13:29:59.115Z,9.95
2019-03-21T13:40:01.935Z,11.90
2019-03-21T13:50:06.184Z,8.60
2019-03-21T14:00:11.295Z,12.53
2019-03-21T14:10:14.320Z,16.85
2019-03-21T14:20:16.828Z,11.73
2019-03-21T14:30:19.670Z,13.38
2019-03-21T14:40:22.226Z,11.50
2019-03-21T14:50:24.986Z,10.58
2019-03-21T15:00:27.766Z,10.93
2019-03-21T15:10:30.276Z,11.03
2019-03-21T15:20:32.815Z,15.68
2019-03-21T15:30:35.327Z,14.35
2019-03-21T15:40:37.963Z,17.12
2019-03-21T15:50:41.019Z,15.83
2019-03-21T16:00:43.967Z,14.75
2019-03-21T16:10:46.462Z,15.35
2019-03-21T16:30:51.033Z,15.85
2019-03-21T16:50:55.427Z,14.53
2019-03-21T17:00:58.260Z,19.90
2019-03-21T17:21:03.117Z,19.25
2019-03-21T17:31:06.519Z,22.15
2019-03-21T17:41:09.767Z,21.55
2019-03-21T17:51:26.871Z,23.85
2019-03-21T18:01:30.182Z,20.62
2019-03-21T18:11:33.041Z,27.07
2019-03-21T18:31:38.080Z,32.03
2019-03-21T18:41:41.841Z,33.40
2019-03-21T18:51:44.370Z,24.60
2019-03-21T19:01:58.038Z,37.87
2019-03-21T19:11:52.834Z,36.05
2019-03-21T19:21:55.422Z,33.05
2019-03-21T19:31:57.951Z,29.37
2019-03-21T19:42:01.447Z,34.63
2019-03-21T19:52:05.521Z,32.55
2019-03-21T20:02:08.337Z,33.78
2019-03-21T20:12:11.109Z,36.93
2019-03-21T20:22:13.691Z,32.65
2019-03-21T20:32:20.740Z,36.20
2019-03-21T20:42:22.642Z,46.40
2019-03-21T20:52:25.743Z,37.07
2019-03-21T21:12:30.430Z,35.13
2019-03-21T21:22:32.982Z,37.33
2019-03-21T21:32:36.301Z,41.27
2019-03-21T21:42:39.112Z,38.23
2019-03-21T21:52:42.581Z,39.65
2019-03-21T22:02:45.227Z,42.00
2019-03-21T22:12:47.879Z,39.67
2019-03-21T22:22:50.602Z,38.63
2019-03-21T22:32:53.304Z,40.92
2019-03-21T22:42:56.767Z,49.50
2019-03-21T22:52:59.299Z,39.13
2019-03-21T23:03:03.032Z,48.40
2019-03-21T23:13:05.626Z,50.48
2019-03-21T23:23:08.335Z,49.33
2019-03-21T23:33:11.137Z,45.00
2019-03-21T23:43:13.922Z,44.60
2019-03-21T23:53:16.415Z,45.25
